Main page
METAR-TAF:

METAR-TAF

Airports :

Rhodes International Airport

Rhodes, Greece

latitude: 36-24N, longitude: 028-05E, elevation: 4 m

Current weather observation

The report was made 41 minutes ago, at 04:50 UTC
Wind 2 kt from variable directions
Temperature 23°C
Humidity 57%
Pressure 1010 hPa
Visibility 10 km or more
Few clouds at a height of 1800 ft

METAR: LGRP 210450Z VRB02KT 9999 FEW018 23/14 Q1010 NOSIG

Time: 08:31 (05:31 UTC)

Forecast

The report was made 6 hours and 31 minutes ago, at 23:00 UTC
Forecast valid from 21 at 00 UTC to 21 at 24 UTC
Wind 15 kt from the West/Southwest
Visibility 10 km or more
Few clouds at a height of 1800 ft
Becoming
from 21 at 03 UTC to 21 at 05 UTC
Wind 5 kt from variable directions

TAF: LGRP 202300Z 2100/2124 25015KT 9999 FEW018 BECMG 2103/2105 VRB05KT

Weather observations and forecasts of more than 4000 airports (METAR and TAF reports).

The available stations are represented by yellow and red dots on the map.

Hover mouse over dot to see the name of the station.

Then click to see weather observations and forecasts.

To change the map : click on the green buttons with a black cross to zoom in, on the green button with a dash to zoom out, or on the green arrows for adjacent maps.


METAR-TAF: